createdAt,value
2018-06-27T00:03:11.206Z,81.94
2018-06-27T00:09:17.066Z,83.99
2018-06-27T00:15:24.001Z,84.38
2018-06-27T00:21:30.043Z,84.18
2018-06-27T00:27:36.026Z,83.86
2018-06-27T00:33:42.087Z,83.50
2018-06-27T00:39:47.816Z,83.19
2018-06-27T00:45:54.658Z,82.71
2018-06-27T00:52:00.468Z,82.45
2018-06-27T00:58:07.082Z,83.14
2018-06-27T01:04:12.966Z,82.41
2018-06-27T01:10:18.864Z,83.28
2018-06-27T01:16:25.514Z,83.39
2018-06-27T01:22:31.302Z,84.08
2018-06-27T01:28:37.251Z,85.14
2018-06-27T01:34:43.227Z,85.07
2018-06-27T01:40:48.937Z,84.30
2018-06-27T01:46:54.669Z,84.00
2018-06-27T01:53:00.361Z,83.41
2018-06-27T01:59:06.111Z,83.97
2018-06-27T02:05:12.168Z,84.38
2018-06-27T02:11:17.924Z,85.05
2018-06-27T02:17:23.806Z,85.75
2018-06-27T02:23:29.437Z,86.81
2018-06-27T02:29:35.777Z,87.04
2018-06-27T02:35:41.809Z,86.44
2018-06-27T02:41:47.534Z,86.28
2018-06-27T02:47:54.078Z,85.90
2018-06-27T02:53:59.890Z,85.28
2018-06-27T03:00:07.347Z,85.09
2018-06-27T03:06:13.038Z,85.75
2018-06-27T03:12:19.885Z,85.72
2018-06-27T03:18:25.372Z,86.60
2018-06-27T03:24:31.077Z,85.80
2018-06-27T03:30:36.599Z,86.39
2018-06-27T03:36:42.188Z,86.09
2018-06-27T03:42:48.039Z,86.65
2018-06-27T03:48:54.354Z,85.29
2018-06-27T03:55:00.481Z,85.02
2018-06-27T04:01:07.334Z,85.32
2018-06-27T04:07:13.077Z,85.75
2018-06-27T04:13:22.974Z,85.43
2018-06-27T04:19:28.766Z,85.53
2018-06-27T04:25:34.473Z,84.37
2018-06-27T04:31:40.200Z,83.29
2018-06-27T04:37:45.869Z,84.66
2018-06-27T04:43:51.810Z,84.39
2018-06-27T04:49:57.844Z,83.67
2018-06-27T04:56:03.789Z,83.02
2018-06-27T05:02:09.476Z,81.20
2018-06-27T05:08:15.287Z,82.15
2018-06-27T05:14:22.224Z,81.69
2018-06-27T05:20:28.264Z,81.21
2018-06-27T05:26:34.017Z,78.25
2018-06-27T05:32:39.607Z,78.34
2018-06-27T05:38:45.815Z,77.53
2018-06-27T05:44:52.094Z,77.60
2018-06-27T05:50:58.028Z,77.36
2018-06-27T05:57:03.820Z,76.75
2018-06-27T06:03:09.959Z,74.51
2018-06-27T06:09:15.696Z,74.11
2018-06-27T06:15:21.887Z,73.19
2018-06-27T06:21:27.724Z,73.72
2018-06-27T06:27:33.475Z,72.89
2018-06-27T06:33:39.120Z,72.81
2018-06-27T06:39:45.172Z,73.94
2018-06-27T06:45:51.350Z,73.40
2018-06-27T06:51:57.016Z,71.79
2018-06-27T06:58:02.804Z,70.69
2018-06-27T07:04:08.632Z,69.21
2018-06-27T07:10:14.605Z,68.74
2018-06-27T07:16:20.716Z,67.71
2018-06-27T07:22:26.950Z,67.36
2018-06-27T07:28:32.624Z,64.67
2018-06-27T07:34:38.418Z,63.71
2018-06-27T07:40:44.238Z,64.16
2018-06-27T07:46:50.237Z,62.47
2018-06-27T07:52:55.959Z,60.34
2018-06-27T07:59:01.668Z,58.22
2018-06-27T08:05:07.630Z,57.68
2018-06-27T08:11:13.825Z,57.27
2018-06-27T08:17:20.402Z,55.19
2018-06-27T08:23:25.730Z,52.99
2018-06-27T08:29:31.473Z,53.85
2018-06-27T08:35:37.232Z,51.32
2018-06-27T08:41:42.943Z,48.70
2018-06-27T08:47:48.628Z,46.62
2018-06-27T08:53:55.442Z,48.61
2018-06-27T09:00:01.404Z,48.44
2018-06-27T09:06:07.064Z,47.14
2018-06-27T09:12:13.008Z,46.26
2018-06-27T09:18:18.652Z,45.26
2018-06-27T09:24:24.658Z,45.62
2018-06-27T09:30:30.535Z,44.11
2018-06-27T09:36:36.151Z,46.03
2018-06-27T09:42:41.912Z,45.76
2018-06-27T09:48:47.869Z,42.17
2018-06-27T09:54:57.909Z,42.78
2018-06-27T10:01:03.829Z,41.38
2018-06-27T10:07:09.653Z,41.12
2018-06-27T10:13:15.384Z,40.95
2018-06-27T10:19:21.678Z,38.61
2018-06-27T10:25:27.404Z,36.85
2018-06-27T10:31:33.262Z,35.55
2018-06-27T10:37:39.166Z,34.97
2018-06-27T10:43:44.833Z,34.19
2018-06-27T10:49:50.602Z,34.36
2018-06-27T10:55:56.715Z,34.40
2018-06-27T11:02:02.397Z,35.77
2018-06-27T11:08:08.402Z,36.46
2018-06-27T11:14:14.238Z,37.71
2018-06-27T11:20:20.165Z,34.91
2018-06-27T11:26:26.090Z,35.08
2018-06-27T11:32:31.771Z,34.33
2018-06-27T11:38:37.914Z,31.74
2018-06-27T11:44:43.444Z,34.24
2018-06-27T11:50:49.266Z,31.87
2018-06-27T11:56:55.951Z,32.96
2018-06-27T12:03:01.920Z,34.90
2018-06-27T12:09:11.410Z,37.18
2018-06-27T12:15:17.888Z,35.38
2018-06-27T12:21:24.785Z,34.06
2018-06-27T12:27:30.534Z,32.38
2018-06-27T12:33:36.221Z,32.04
2018-06-27T12:39:41.971Z,32.25
2018-06-27T12:45:47.600Z,33.14
2018-06-27T12:51:54.036Z,30.96
2018-06-27T12:57:59.814Z,31.46
2018-06-27T13:04:05.585Z,33.79
2018-06-27T13:10:11.362Z,32.49
2018-06-27T13:16:17.020Z,32.81
2018-06-27T13:22:26.503Z,32.64
2018-06-27T13:28:32.321Z,30.05
2018-06-27T13:34:38.040Z,29.75
2018-06-27T13:40:43.826Z,32.75
2018-06-27T13:46:49.738Z,30.34
2018-06-27T13:52:56.039Z,29.96
2018-06-27T13:59:01.758Z,31.36
2018-06-27T14:05:07.432Z,29.54
2018-06-27T14:11:13.208Z,27.36
2018-06-27T14:17:19.526Z,28.76
2018-06-27T14:23:25.384Z,32.53
2018-06-27T14:29:31.217Z,33.03
2018-06-27T14:35:36.962Z,30.56
2018-06-27T14:41:42.826Z,30.21
2018-06-27T14:47:48.509Z,27.23
2018-06-27T14:53:54.415Z,27.33
2018-06-27T15:00:00.311Z,28.42
2018-06-27T15:06:06.044Z,29.03
2018-06-27T15:12:11.726Z,30.14
2018-06-27T15:18:17.490Z,29.34
2018-06-27T15:24:23.297Z,30.78
2018-06-27T15:30:29.060Z,32.33
2018-06-27T15:36:34.712Z,28.59
2018-06-27T15:42:40.423Z,28.59
2018-06-27T15:48:46.178Z,27.23
2018-06-27T15:54:53.466Z,28.11
2018-06-27T16:00:59.369Z,28.42
2018-06-27T16:07:05.346Z,30.08
2018-06-27T16:13:11.108Z,28.87
2018-06-27T16:19:16.928Z,30.38
2018-06-27T16:25:23.390Z,31.82
2018-06-27T16:31:29.747Z,32.90
2018-06-27T16:37:35.495Z,34.11
2018-06-27T16:43:41.255Z,32.43
2018-06-27T16:49:46.999Z,26.28
2018-06-27T16:55:53.629Z,27.78
2018-06-27T17:01:59.414Z,30.67
2018-06-27T17:08:05.337Z,32.59
2018-06-27T17:14:11.581Z,33.92
2018-06-27T17:20:17.330Z,33.32
2018-06-27T17:26:23.236Z,29.51
2018-06-27T17:32:28.966Z,30.64
2018-06-27T17:38:34.877Z,33.96
2018-06-27T17:44:40.734Z,35.00
2018-06-27T17:50:46.859Z,33.09
2018-06-27T17:56:53.182Z,31.20
2018-06-27T18:02:59.184Z,26.66
2018-06-27T18:09:07.847Z,24.92
2018-06-27T18:15:13.635Z,22.63
2018-06-27T18:21:19.360Z,22.11
2018-06-27T18:27:25.269Z,22.33
2018-06-27T18:33:31.004Z,22.48
2018-06-27T18:39:36.847Z,23.22
2018-06-27T18:45:42.708Z,23.16
2018-06-27T18:51:48.579Z,26.39
2018-06-27T18:57:54.529Z,32.77
2018-06-27T19:04:00.343Z,38.26
2018-06-27T19:10:07.148Z,40.17
2018-06-27T19:16:13.014Z,42.96
2018-06-27T19:22:19.127Z,44.98
2018-06-27T19:28:24.647Z,48.05
2018-06-27T19:34:30.221Z,50.40
2018-06-27T19:40:36.429Z,51.53
2018-06-27T19:46:42.121Z,51.80
2018-06-27T19:52:47.900Z,52.97
2018-06-27T19:58:54.499Z,53.23
2018-06-27T20:05:00.285Z,54.57
2018-06-27T20:11:05.986Z,55.43
2018-06-27T20:17:11.766Z,55.24
2018-06-27T20:23:17.700Z,56.83
2018-06-27T20:29:25.076Z,56.01
2018-06-27T20:35:30.728Z,57.90
2018-06-27T20:41:36.653Z,57.55
2018-06-27T20:47:42.493Z,58.50
2018-06-27T20:53:48.261Z,57.80
2018-06-27T20:59:55.373Z,56.68
2018-06-27T21:06:01.111Z,55.39
2018-06-27T21:12:07.179Z,54.25
2018-06-27T21:18:12.995Z,54.39
2018-06-27T21:24:18.814Z,56.01
2018-06-27T21:30:26.358Z,57.26
2018-06-27T21:36:32.177Z,58.66
2018-06-27T21:42:38.811Z,59.32
2018-06-27T21:48:44.743Z,60.03
2018-06-27T21:54:50.874Z,60.37
2018-06-27T22:00:57.052Z,59.99
2018-06-27T22:07:02.737Z,60.28
2018-06-27T22:13:09.095Z,60.02
2018-06-27T22:19:14.881Z,60.97
2018-06-27T22:25:20.701Z,61.43
2018-06-27T22:31:26.999Z,60.92
2018-06-27T22:37:32.925Z,59.95
2018-06-27T22:43:38.898Z,60.01
2018-06-27T22:49:52.125Z,61.21
2018-06-27T22:55:58.081Z,60.97
2018-06-27T23:02:03.781Z,61.46
2018-06-27T23:08:10.013Z,60.75
2018-06-27T23:14:16.021Z,61.53
2018-06-27T23:20:22.461Z,61.46
2018-06-27T23:26:28.333Z,62.58
2018-06-27T23:32:34.112Z,63.89
2018-06-27T23:38:39.823Z,63.89
2018-06-27T23:44:45.509Z,64.85
2018-06-27T23:50:52.480Z,65.18
2018-06-27T23:56:58.288Z,66.44
